Time;durP1;ratioP1;P1;durP2;ratioP2;P2;SDS_P1;SDS_P2;PMS_P1;PMS_P2;Temp;Humidity;BMP_temperature;BMP_pressure;BME280_temperature;BME280_humidity;BME280_pressure;Samples;Min_cycle;Max_cycle;Signal;HPM_P1;HPM_P2
2021/12/17 00:01:38;;;;;;;26.87;21.00;;;;;;;4.67;100.00;100134.97;4982127;28;20226;-72
2021/12/17 00:04:24;;;;;;;22.20;18.77;;;;;;;4.60;100.00;100142.31;4990299;28;20405;-71
2021/12/17 00:06:52;;;;;;;27.17;19.67;;;;;;;4.47;100.00;100134.16;4985280;28;20290;-73
2021/12/17 00:09:22;;;;;;;26.80;21.20;;;;;;;4.47;100.00;100135.00;4996237;28;20208;-73
2021/12/17 00:11:50;;;;;;;27.77;21.13;;;;;;;4.44;100.00;100131.69;4993508;28;20757;-73
2021/12/17 00:14:26;;;;;;;27.47;19.03;;;;;;;4.42;100.00;100128.28;4941180;28;20525;-71
2021/12/17 00:16:54;;;;;;;23.63;18.63;;;;;;;4.39;100.00;100134.53;4986225;28;20204;-72
2021/12/17 00:19:36;;;;;;;25.70;19.67;;;;;;;4.37;100.00;100138.16;5001641;28;20214;-71
2021/12/17 00:50:20;;;;;;;27.00;20.57;;;;;;;3.47;100.00;100108.91;4962268;28;20235;-74
2021/12/17 00:52:49;;;;;;;22.90;18.67;;;;;;;3.40;100.00;100103.06;5001999;28;20424;-74
2021/12/17 00:55:17;;;;;;;26.00;19.07;;;;;;;3.38;100.00;100104.03;4963867;28;20234;-74
2021/12/17 00:57:46;;;;;;;30.10;20.97;;;;;;;3.42;100.00;100100.38;5002149;28;20393;-74
2021/12/17 01:00:17;;;;;;;24.17;20.17;;;;;;;3.39;100.00;100103.97;4917173;28;20558;-73
2021/12/17 01:02:47;;;;;;;23.70;19.77;;;;;;;3.38;100.00;100090.94;5002457;28;20642;-74
2021/12/17 01:05:19;;;;;;;26.73;21.10;;;;;;;3.40;100.00;100091.72;4972262;28;20228;-74
2021/12/17 01:07:49;;;;;;;25.07;17.97;;;;;;;3.38;100.00;100094.41;4998982;28;20231;-74
2021/12/17 01:10:21;;;;;;;21.57;18.13;;;;;;;3.37;100.00;100090.09;4985228;28;20204;-74
2021/12/17 01:12:51;;;;;;;22.20;18.13;;;;;;;3.44;100.00;100088.06;5001551;28;20243;-74
2021/12/17 01:15:20;;;;;;;22.90;17.87;;;;;;;3.45;100.00;100085.38;4945185;28;20212;-74
2021/12/17 01:17:56;;;;;;;23.20;19.27;;;;;;;3.48;100.00;100076.53;5000402;28;20649;-72
2021/12/17 01:20:44;;;;;;;24.23;19.93;;;;;;;3.49;100.00;100086.09;4984843;28;20215;-71
2021/12/17 01:23:41;;;;;;;21.90;17.10;;;;;;;3.46;100.00;100088.84;5000733;28;20406;-72
2021/12/17 01:37:48;;;;;;;27.90;19.17;;;;;;;3.56;100.00;100081.41;4971243;28;20215;-74
2021/12/17 01:42:47;;;;;;;28.50;20.57;;;;;;;3.51;100.00;100071.16;5002406;28;20227;-74
2021/12/17 01:45:17;;;;;;;27.83;18.93;;;;;;;3.57;100.00;100083.09;4973103;28;20978;-73
2021/12/17 01:47:45;;;;;;;27.13;21.33;;;;;;;3.61;100.00;100090.78;4941905;28;20597;-74
2021/12/17 01:55:49;;;;;;;27.90;20.73;;;;;;;3.59;100.00;100076.03;4973913;28;20717;-74
2021/12/17 02:01:11;;;;;;;25.63;20.77;;;;;;;3.56;100.00;100081.41;4937861;28;21141;-73
2021/12/17 02:03:39;;;;;;;22.37;18.00;;;;;;;3.54;100.00;100078.88;5000481;28;20234;-73
2021/12/17 02:06:08;;;;;;;27.43;19.83;;;;;;;3.51;100.00;100079.00;4956308;28;20786;-73
2021/12/17 02:08:36;;;;;;;25.90;17.93;;;;;;;3.54;100.00;100080.63;4994700;28;20231;-74
2021/12/17 02:33:09;;;;;;;29.97;19.60;;;;;;;3.75;100.00;100066.56;4939016;28;20257;-72
2021/12/17 02:35:41;;;;;;;34.27;20.43;;;;;;;3.63;100.00;100059.25;4976194;28;20295;-72
2021/12/17 02:38:13;;;;;;;31.77;21.70;;;;;;;3.73;100.00;100067.53;4972041;28;20497;-72
2021/12/17 02:46:12;;;;;;;29.03;20.00;;;;;;;3.65;100.00;100061.81;4998231;28;20447;-72
2021/12/17 02:48:43;;;;;;;31.80;19.33;;;;;;;3.63;100.00;100054.03;4951309;28;20468;-73
2021/12/17 02:51:11;;;;;;;29.07;18.87;;;;;;;3.60;100.00;100057.63;5004720;28;20215;-72
2021/12/17 02:53:41;;;;;;;26.23;18.77;;;;;;;3.75;100.00;100056.09;4980334;28;20238;-72
2021/12/17 02:56:09;;;;;;;32.30;20.53;;;;;;;4.07;100.00;100054.69;5003757;28;20216;-72
2021/12/17 02:58:38;;;;;;;30.00;19.60;;;;;;;3.96;100.00;100042.03;4968363;28;20206;-73
2021/12/17 03:01:08;;;;;;;24.17;17.33;;;;;;;3.79;100.00;100040.19;4996687;28;20235;-72
2021/12/17 03:03:39;;;;;;;29.90;19.37;;;;;;;3.80;100.00;100042.78;4999670;28;20904;-72
2021/12/17 03:06:08;;;;;;;24.90;18.87;;;;;;;3.69;100.00;100045.88;4911294;28;20496;-72
2021/12/17 03:08:36;;;;;;;24.63;18.73;;;;;;;3.77;100.00;100029.78;4991819;28;20224;-72
2021/12/17 03:11:06;;;;;;;30.67;20.03;;;;;;;3.61;100.00;100032.25;4972620;28;20204;-71
2021/12/17 03:13:36;;;;;;;27.73;18.67;;;;;;;3.57;100.00;100033.28;5002833;28;20224;-72
2021/12/17 03:16:12;;;;;;;28.23;18.70;;;;;;;3.69;100.00;100031.91;4967087;28;20313;-72
2021/12/17 03:18:58;;;;;;;24.33;16.90;;;;;;;3.64;100.00;100041.75;5004892;28;20203;-73
2021/12/17 03:24:20;;;;;;;26.80;18.83;;;;;;;3.58;100.00;100032.38;5001852;28;20224;-72
2021/12/17 03:26:51;;;;;;;25.83;19.00;;;;;;;3.59;100.00;100034.94;4981570;28;20294;-72
2021/12/17 03:29:19;;;;;;;29.90;18.90;;;;;;;3.63;100.00;100025.19;5004448;28;20227;-72
2021/12/17 03:31:47;;;;;;;31.17;19.23;;;;;;;3.46;100.00;100024.16;4979453;28;20896;-71
2021/12/17 03:34:19;;;;;;;28.50;18.77;;;;;;;3.54;100.00;100031.69;5009658;28;20554;-72
2021/12/17 03:36:53;;;;;;;32.87;19.63;;;;;;;3.51;100.00;100039.69;4915058;28;20685;-72
2021/12/17 03:39:22;;;;;;;28.33;19.00;;;;;;;3.54;100.00;100039.53;4975410;28;20257;-72
2021/12/17 03:41:52;;;;;;;27.97;17.70;;;;;;;3.67;100.00;100052.09;4986556;28;20242;-71
2021/12/17 03:44:21;;;;;;;30.33;18.20;;;;;;;3.75;100.00;100044.72;4996631;28;20631;-72
2021/12/17 03:46:50;;;;;;;28.00;18.20;;;;;;;3.70;100.00;100046.72;4988330;28;20750;-71
2021/12/17 03:49:19;;;;;;;27.07;18.57;;;;;;;3.55;100.00;100043.88;4996382;28;20216;-72
2021/12/17 03:51:51;;;;;;;28.47;18.73;;;;;;;3.55;100.00;100040.38;4985256;28;20230;-71
2021/12/17 03:54:20;;;;;;;24.10;17.83;;;;;;;3.47;100.00;100046.81;4936617;28;20741;-72
2021/12/17 03:56:48;;;;;;;27.17;18.67;;;;;;;3.49;100.00;100044.16;4991713;28;20702;-71
2021/12/17 03:59:17;;;;;;;26.67;18.57;;;;;;;3.43;100.00;100032.16;5000101;28;20488;-72
2021/12/17 04:01:45;;;;;;;25.77;18.20;;;;;;;3.46;100.00;100026.78;5004087;28;20512;-72
2021/12/17 04:04:13;;;;;;;28.00;18.40;;;;;;;3.45;100.00;100034.72;4986891;28;20208;-72
2021/12/17 04:06:41;;;;;;;21.77;17.97;;;;;;;3.56;100.00;100039.47;4975633;28;20204;-73
2021/12/17 04:09:09;;;;;;;29.03;18.77;;;;;;;3.45;100.00;100024.25;4918993;28;20219;-74
2021/12/17 04:11:37;;;;;;;24.93;16.17;;;;;;;3.52;100.00;100036.13;4983395;28;20863;-73
2021/12/17 04:14:06;;;;;;;29.37;17.27;;;;;;;3.46;100.00;100033.81;5008113;28;20207;-73
2021/12/17 04:16:35;;;;;;;29.87;19.47;;;;;;;3.44;100.00;100036.47;4971826;28;21002;-73
2021/12/17 04:19:04;;;;;;;29.07;19.73;;;;;;;3.46;100.00;100042.50;4988190;28;20203;-73
2021/12/17 04:21:32;;;;;;;26.70;18.83;;;;;;;3.47;100.00;100041.59;4974680;28;21190;-73
2021/12/17 04:24:00;;;;;;;26.13;18.50;;;;;;;3.43;100.00;100042.63;4953069;28;20208;-73
2021/12/17 04:26:28;;;;;;;26.53;17.50;;;;;;;3.47;100.00;100041.59;4973626;28;20205;-72
2021/12/17 04:28:56;;;;;;;26.27;17.70;;;;;;;3.51;100.00;100041.44;5000652;28;20235;-74
2021/12/17 04:31:27;;;;;;;28.27;18.73;;;;;;;3.41;100.00;100047.09;5000732;28;20875;-72
2021/12/17 04:33:56;;;;;;;25.17;18.87;;;;;;;3.42;100.00;100048.81;4986687;28;20214;-72
2021/12/17 04:36:29;;;;;;;24.03;18.40;;;;;;;3.41;100.00;100054.09;4969489;28;20204;-71
2021/12/17 04:38:58;;;;;;;31.40;18.33;;;;;;;3.46;100.00;100062.63;4955603;28;20215;-73
2021/12/17 04:44:16;;;;;;;26.63;18.20;;;;;;;3.43;100.00;100068.00;4998902;28;20204;-73
2021/12/17 04:46:49;;;;;;;28.83;18.63;;;;;;;3.38;100.00;100062.09;5006420;28;20210;-76
2021/12/17 04:57:38;;;;;;;29.57;20.27;;;;;;;3.33;100.00;100064.94;4952006;28;22968;-70
2021/12/17 05:00:09;;;;;;;26.87;19.40;;;;;;;3.34;100.00;100077.13;4961338;28;20600;-70
2021/12/17 05:02:42;;;;;;;27.13;19.03;;;;;;;3.36;100.00;100074.41;4957635;28;22466;-72
2021/12/17 05:05:12;;;;;;;26.33;18.53;;;;;;;3.29;100.00;100072.06;4959908;28;20254;-71
2021/12/17 05:07:46;;;;;;;27.10;17.80;;;;;;;3.36;100.00;100072.66;4967806;28;20424;-70
2021/12/17 05:10:23;;;;;;;29.17;18.97;;;;;;;3.33;100.00;100059.69;4916773;28;20225;-70
2021/12/17 05:18:25;;;;;;;27.63;18.63;;;;;;;3.31;100.00;100078.09;4956151;28;20200;-70
2021/12/17 05:21:01;;;;;;;27.57;18.83;;;;;;;3.30;100.00;100079.00;4974179;28;20247;-69
2021/12/17 05:23:31;;;;;;;26.10;17.43;;;;;;;3.28;100.00;100078.22;4979459;28;20224;-70
2021/12/17 05:26:00;;;;;;;29.40;18.77;;;;;;;3.30;100.00;100086.88;4923314;28;20211;-70
2021/12/17 05:28:28;;;;;;;33.73;20.73;;;;;;;3.30;100.00;100078.19;4952435;28;20824;-69
2021/12/17 05:30:57;;;;;;;27.80;18.97;;;;;;;3.33;100.00;100078.88;4974919;28;20422;-70
2021/12/17 05:33:26;;;;;;;28.20;17.93;;;;;;;3.27;100.00;100087.00;4958590;28;21145;-70
2021/12/17 05:35:56;;;;;;;29.77;20.07;;;;;;;3.32;100.00;100086.81;4961111;28;20220;-71
2021/12/17 05:38:26;;;;;;;30.67;19.40;;;;;;;3.15;100.00;100091.00;4981852;28;20311;-73
2021/12/17 05:40:55;;;;;;;32.80;19.90;;;;;;;3.41;100.00;100086.41;4898828;28;20913;-73
2021/12/17 05:43:23;;;;;;;28.90;20.93;;;;;;;3.45;100.00;100084.53;4973433;28;20225;-70
2021/12/17 05:46:05;;;;;;;32.77;20.23;;;;;;;3.21;100.00;100082.03;4956075;28;20219;-70
2021/12/17 05:48:33;;;;;;;34.63;21.07;;;;;;;3.30;100.00;100094.75;4960963;28;20262;-70
2021/12/17 05:51:07;;;;;;;29.87;18.87;;;;;;;3.21;100.00;100102.13;4950164;28;20406;-70
2021/12/17 05:53:35;;;;;;;27.00;19.10;;;;;;;3.17;100.00;100104.88;4958858;28;20235;-70
2021/12/17 05:56:04;;;;;;;33.63;21.10;;;;;;;3.12;100.00;100098.16;4920434;28;20977;-70
2021/12/17 05:58:32;;;;;;;30.80;19.00;;;;;;;3.11;100.00;100094.66;4961992;28;20216;-70
2021/12/17 06:01:00;;;;;;;25.23;16.97;;;;;;;3.31;100.00;100092.97;4955692;28;20208;-70
2021/12/17 06:05:58;;;;;;;26.03;17.17;;;;;;;3.32;100.00;100085.03;4888890;28;20659;-70
2021/12/17 06:08:27;;;;;;;25.23;18.37;;;;;;;3.26;100.00;100090.53;4909339;28;20316;-70
2021/12/17 06:10:55;;;;;;;25.93;16.43;;;;;;;3.12;100.00;100087.66;4867511;28;20234;-70
2021/12/17 06:13:23;;;;;;;28.37;18.37;;;;;;;3.06;100.00;100103.66;4893151;28;20234;-70
2021/12/17 06:15:51;;;;;;;26.33;16.67;;;;;;;3.14;100.00;100091.09;4915841;28;20349;-70
2021/12/17 06:18:19;;;;;;;24.77;16.37;;;;;;;3.09;100.00;100101.75;4923322;28;20211;-71
2021/12/17 06:20:48;;;;;;;26.43;17.93;;;;;;;3.02;100.00;100105.53;4893150;28;20210;-71
2021/12/17 06:23:16;;;;;;;30.17;21.20;;;;;;;3.10;100.00;100100.81;4915001;28;20305;-71
2021/12/17 06:25:45;;;;;;;29.93;20.97;;;;;;;3.05;100.00;100102.78;4859381;28;20222;-71
2021/12/17 06:28:16;;;;;;;28.23;18.50;;;;;;;2.94;100.00;100102.41;4912167;28;20378;-71
2021/12/17 06:30:44;;;;;;;28.07;17.60;;;;;;;2.95;100.00;100096.25;4905522;28;20230;-71
2021/12/17 06:33:12;;;;;;;25.00;15.93;;;;;;;2.99;100.00;100095.19;4879981;28;20241;-73
2021/12/17 06:35:40;;;;;;;22.17;15.77;;;;;;;3.01;100.00;100086.34;4901038;28;20233;-73
2021/12/17 06:38:08;;;;;;;26.43;17.97;;;;;;;2.99;100.00;100069.00;4921385;28;20411;-73
2021/12/17 06:40:38;;;;;;;26.73;18.47;;;;;;;3.24;100.00;100068.78;4912370;28;20332;-73
2021/12/17 06:43:08;;;;;;;21.13;15.10;;;;;;;3.30;100.00;100072.94;4874015;28;20578;-73
2021/12/17 06:45:50;;;;;;;27.43;17.00;;;;;;;3.27;100.00;100084.38;4936651;28;20205;-73
2021/12/17 06:48:22;;;;;;;25.93;16.03;;;;;;;3.21;100.00;100087.28;4945406;28;20214;-73
2021/12/17 06:59:39;;;;;;;33.03;18.83;;;;;;;3.04;100.00;100070.50;4937023;28;20599;-73
2021/12/17 07:10:36;;;;;;;26.07;17.50;;;;;;;3.11;100.00;100078.94;4943216;28;20333;-73
2021/12/17 07:19:29;;;;;;;28.77;16.73;;;;;;;3.15;100.00;100085.75;4916840;28;20206;-73
2021/12/17 07:21:57;;;;;;;31.00;17.20;;;;;;;3.00;100.00;100078.56;4934433;28;20225;-73
2021/12/17 07:33:14;;;;;;;24.17;15.97;;;;;;;3.07;100.00;100084.41;4917732;28;20617;-73
2021/12/17 07:35:52;;;;;;;27.07;16.07;;;;;;;3.12;100.00;100080.66;4930132;28;20203;-71
2021/12/17 07:41:07;;;;;;;27.73;14.77;;;;;;;2.87;100.00;100086.06;4927663;28;20736;-72
2021/12/17 07:43:52;;;;;;;21.87;14.10;;;;;;;3.02;100.00;100088.03;4931248;28;20687;-72
2021/12/17 07:46:20;;;;;;;24.63;14.20;;;;;;;2.92;100.00;100091.13;4940974;28;20696;-72
2021/12/17 07:48:50;;;;;;;25.87;14.57;;;;;;;2.99;100.00;100106.50;4914664;28;20215;-72
2021/12/17 07:51:21;;;;;;;26.00;13.87;;;;;;;2.97;100.00;100097.03;4940741;28;20230;-72
2021/12/17 07:53:50;;;;;;;27.30;14.57;;;;;;;2.76;100.00;100096.97;4913374;28;20697;-72
2021/12/17 07:56:19;;;;;;;20.80;14.60;;;;;;;2.69;100.00;100098.16;4939235;28;20562;-72
2021/12/17 07:58:47;;;;;;;24.73;14.53;;;;;;;2.65;100.00;100104.41;4915346;28;20217;-72
2021/12/17 08:01:16;;;;;;;21.77;12.93;;;;;;;2.67;100.00;100100.84;4884265;28;20394;-72
2021/12/17 08:03:44;;;;;;;21.87;13.20;;;;;;;2.64;100.00;100111.41;4913728;28;20752;-72
2021/12/17 08:06:14;;;;;;;19.97;12.60;;;;;;;2.62;100.00;100115.84;4945481;28;20333;-72
2021/12/17 08:08:42;;;;;;;25.30;13.67;;;;;;;2.66;100.00;100113.97;4940769;28;20210;-72
2021/12/17 08:11:10;;;;;;;24.33;13.47;;;;;;;2.77;100.00;100113.56;4940882;28;20231;-73
2021/12/17 08:13:38;;;;;;;24.57;14.53;;;;;;;2.80;100.00;100122.13;4933657;28;20225;-71
2021/12/17 08:16:29;;;;;;;28.17;16.57;;;;;;;2.78;100.00;100121.31;4876133;28;21565;-71
2021/12/17 08:23:08;;;;;;;27.33;15.07;;;;;;;2.84;100.00;100113.25;4908043;28;20951;-71
2021/12/17 08:24:53;;;;;;;22.80;14.50;;;;;;;3.10;100.00;100119.16;4913549;28;20533;-71
2021/12/17 08:27:28;;;;;;;27.33;17.20;;;;;;;3.06;100.00;100122.00;4948264;28;20406;-71
2021/12/17 08:30:18;;;;;;;32.30;20.50;;;;;;;3.05;100.00;100126.38;4931285;28;20347;-71
2021/12/17 08:32:46;;;;;;;169.43;93.00;;;;;;;3.04;100.00;100124.66;4841047;28;20230;-72
2021/12/17 08:35:14;;;;;;;33.90;21.77;;;;;;;3.00;100.00;100115.22;4915376;28;20614;-71
2021/12/17 08:37:44;;;;;;;43.93;26.77;;;;;;;2.81;100.00;100115.97;4920680;28;20650;-71
2021/12/17 08:40:12;;;;;;;50.30;32.13;;;;;;;2.80;100.00;100126.53;4933874;28;20221;-71
2021/12/17 08:42:40;;;;;;;26.53;13.37;;;;;;;2.98;100.00;100128.38;4927482;28;20585;-71
2021/12/17 08:45:09;;;;;;;22.87;13.23;;;;;;;2.86;100.00;100129.75;4921089;28;20589;-71
2021/12/17 08:47:40;;;;;;;23.00;12.83;;;;;;;2.57;100.00;100136.13;4878018;28;20220;-71
2021/12/17 08:50:11;;;;;;;20.17;11.80;;;;;;;2.58;100.00;100137.84;4921268;28;20214;-71
2021/12/17 08:52:40;;;;;;;20.30;12.40;;;;;;;2.70;100.00;100136.50;4927586;28;20242;-73
2021/12/17 08:55:11;;;;;;;25.80;15.27;;;;;;;2.50;100.00;100135.53;4930389;28;20277;-73
2021/12/17 08:57:39;;;;;;;122.07;56.87;;;;;;;2.51;100.00;100139.00;4930371;28;20249;-74
2021/12/17 09:00:12;;;;;;;201.07;97.20;;;;;;;2.69;100.00;100143.53;4934553;28;20413;-74
2021/12/17 09:02:41;;;;;;;391.87;180.93;;;;;;;2.66;100.00;100146.25;4867692;28;20686;-71
2021/12/17 09:05:11;;;;;;;110.00;61.80;;;;;;;2.59;100.00;100140.41;4906421;28;20795;-74
2021/12/17 09:07:39;;;;;;;152.23;79.00;;;;;;;2.72;100.00;100139.91;4930040;28;20829;-71
2021/12/17 09:10:11;;;;;;;212.93;106.47;;;;;;;2.69;100.00;100135.66;4927616;28;20214;-71
2021/12/17 09:12:41;;;;;;;28.50;18.27;;;;;;;2.65;100.00;100148.94;4931959;28;20222;-71
2021/12/17 09:15:09;;;;;;;33.37;18.27;;;;;;;2.58;100.00;100156.16;4936203;28;20202;-71
2021/12/17 09:17:38;;;;;;;26.27;15.60;;;;;;;2.71;100.00;100149.53;4870105;28;20205;-72
2021/12/17 09:20:07;;;;;;;25.07;15.57;;;;;;;2.72;100.00;100143.41;4919883;28;20218;-71
2021/12/17 09:22:35;;;;;;;28.00;17.53;;;;;;;2.68;100.00;100139.19;4919074;28;21026;-73
2021/12/17 09:25:04;;;;;;;44.63;32.67;;;;;;;2.74;100.00;100136.34;4921077;28;20802;-74
2021/12/17 09:27:34;;;;;;;20.83;14.57;;;;;;;2.79;100.00;100133.50;4939866;28;20220;-74
2021/12/17 09:30:02;;;;;;;23.10;14.33;;;;;;;2.70;100.00;100123.41;4916008;28;20217;-72
2021/12/17 09:32:31;;;;;;;20.73;14.63;;;;;;;2.73;100.00;100131.13;4935418;28;20230;-72
2021/12/17 09:34:59;;;;;;;22.17;13.60;;;;;;;2.67;100.00;100128.78;4877441;28;20613;-72
2021/12/17 09:37:27;;;;;;;25.67;13.67;;;;;;;2.66;100.00;100125.31;4924827;28;20493;-72
2021/12/17 09:39:55;;;;;;;20.50;13.43;;;;;;;2.81;100.00;100133.47;4930155;28;20507;-72
2021/12/17 09:42:23;;;;;;;19.93;14.00;;;;;;;2.78;100.00;100136.22;4918413;28;20230;-72
2021/12/17 09:44:53;;;;;;;22.67;14.67;;;;;;;2.82;100.00;100130.75;4931725;28;20683;-72
2021/12/17 09:47:21;;;;;;;24.30;15.00;;;;;;;2.70;100.00;100134.75;4940046;28;20234;-72
2021/12/17 09:49:53;;;;;;;19.83;14.57;;;;;;;2.67;100.00;100139.25;4866330;28;20228;-72
2021/12/17 09:52:21;;;;;;;22.30;14.07;;;;;;;2.85;100.00;100148.13;4920578;28;20225;-72
2021/12/17 09:54:49;;;;;;;22.73;14.10;;;;;;;2.64;100.00;100155.06;4930238;28;20731;-72
2021/12/17 09:57:17;;;;;;;19.87;15.13;;;;;;;2.79;100.00;100151.84;4943193;28;20850;-72
2021/12/17 09:59:45;;;;;;;22.73;16.43;;;;;;;2.66;100.00;100156.72;4934326;28;20370;-72
2021/12/17 10:02:15;;;;;;;20.10;13.73;;;;;;;2.77;100.00;100155.44;4936750;28;21528;-72
2021/12/17 10:04:45;;;;;;;19.07;12.70;;;;;;;2.74;100.00;100157.28;4903180;28;20210;-72
2021/12/17 10:07:21;;;;;;;20.30;12.17;;;;;;;2.74;100.00;100143.31;4931843;28;20661;-72
2021/12/17 10:09:50;;;;;;;13.80;11.20;;;;;;;2.69;100.00;100137.41;4918306;28;20220;-72
2021/12/17 10:12:23;;;;;;;20.33;11.90;;;;;;;2.80;100.00;100116.88;4945844;28;20252;-72
2021/12/17 10:15:07;;;;;;;16.87;11.63;;;;;;;2.76;100.00;100123.16;4913885;28;20236;-72
2021/12/17 10:17:38;;;;;;;24.43;14.03;;;;;;;2.90;100.00;100130.47;4934686;28;20205;-71
2021/12/17 10:20:08;;;;;;;22.70;13.23;;;;;;;2.72;100.00;100121.59;4917315;28;20395;-72
2021/12/17 10:22:36;;;;;;;17.10;12.70;;;;;;;2.63;100.00;100124.56;4883426;28;20862;-72
2021/12/17 10:25:07;;;;;;;15.63;11.77;;;;;;;2.64;100.00;100137.59;4901937;28;21069;-73
2021/12/17 10:27:37;;;;;;;18.80;12.37;;;;;;;2.72;100.00;100145.16;4947556;28;20219;-73
2021/12/17 10:30:14;;;;;;;24.30;12.77;;;;;;;2.68;100.00;100139.19;4942796;28;20528;-73
2021/12/17 10:32:46;;;;;;;18.13;11.97;;;;;;;2.67;100.00;100141.88;4936186;28;20228;-73
2021/12/17 10:35:17;;;;;;;17.07;12.97;;;;;;;2.91;100.00;100160.13;4945663;28;20297;-73
2021/12/17 10:37:49;;;;;;;17.67;11.50;;;;;;;2.60;100.00;100139.50;4887218;28;20362;-73
2021/12/17 10:40:20;;;;;;;29.23;17.33;;;;;;;2.76;100.00;100138.88;4928191;28;20221;-73
2021/12/17 10:43:01;;;;;;;26.93;18.33;;;;;;;2.73;100.00;100139.88;4933989;28;20263;-73
2021/12/17 10:45:35;;;;;;;20.10;11.67;;;;;;;2.82;100.00;100148.25;4956907;28;20708;-72
2021/12/17 10:51:16;;;;;;;17.03;11.03;;;;;;;2.58;100.00;100135.22;4885508;28;20909;-72
2021/12/17 10:53:53;;;;;;;18.10;11.97;;;;;;;2.81;100.00;100143.94;4935700;28;20415;-72
2021/12/17 10:56:23;;;;;;;20.73;12.43;;;;;;;2.71;100.00;100149.53;4929607;28;20325;-73
2021/12/17 10:58:56;;;;;;;22.50;12.13;;;;;;;2.84;100.00;100142.06;4938065;28;20214;-73
2021/12/17 11:01:31;;;;;;;22.17;14.07;;;;;;;2.71;100.00;100131.22;4948462;28;20340;-72
2021/12/17 11:04:07;;;;;;;20.67;13.03;;;;;;;2.78;100.00;100133.59;4949778;28;20615;-72
2021/12/17 11:06:54;;;;;;;18.30;12.40;;;;;;;2.54;100.00;100129.25;4930246;28;20214;-73
2021/12/17 11:09:46;;;;;;;15.73;12.33;;;;;;;2.64;100.00;100121.88;4953793;28;20233;-73
2021/12/17 11:12:33;;;;;;;19.87;13.60;;;;;;;2.60;100.00;100121.16;4925229;28;20234;-72
2021/12/17 11:15:19;;;;;;;21.17;14.00;;;;;;;2.74;100.00;100120.63;4955363;28;20477;-72
2021/12/17 11:17:54;;;;;;;20.67;13.40;;;;;;;2.79;100.00;100133.50;4946505;28;20214;-72
2021/12/17 11:20:26;;;;;;;23.77;13.50;;;;;;;2.88;100.00;100130.53;4956926;28;20206;-73
2021/12/17 11:22:55;;;;;;;22.77;14.50;;;;;;;2.90;100.00;100127.84;4885315;28;21331;-73
2021/12/17 11:25:24;;;;;;;18.07;12.50;;;;;;;2.91;100.00;100124.31;4954123;28;20229;-72
2021/12/17 11:27:53;;;;;;;16.47;12.00;;;;;;;2.85;100.00;100125.44;4906281;28;20245;-72
2021/12/17 11:30:23;;;;;;;19.13;12.40;;;;;;;2.75;100.00;100124.06;4952842;28;20201;-72
2021/12/17 11:32:52;;;;;;;19.80;12.50;;;;;;;2.82;100.00;100116.84;4947313;28;20700;-73
2021/12/17 11:35:26;;;;;;;18.47;12.97;;;;;;;2.84;100.00;100115.88;4953607;28;20917;-72
2021/12/17 11:37:57;;;;;;;20.40;12.83;;;;;;;2.75;100.00;100103.13;4940659;28;20924;-73
2021/12/17 11:40:31;;;;;;;15.03;11.43;;;;;;;2.68;100.00;100109.53;4894862;28;20241;-73
2021/12/17 11:43:26;;;;;;;14.53;11.03;;;;;;;2.89;100.00;100106.06;4927330;28;20246;-72
2021/12/17 11:45:59;;;;;;;14.20;10.47;;;;;;;2.70;100.00;100102.47;4937020;28;20440;-72
2021/12/17 11:48:29;;;;;;;20.10;12.67;;;;;;;2.70;100.00;100095.47;4953923;28;20211;-72
2021/12/17 11:51:08;;;;;;;20.37;13.23;;;;;;;2.69;100.00;100096.41;4946751;28;20217;-72
2021/12/17 11:53:42;;;;;;;16.97;11.47;;;;;;;2.74;100.00;100090.94;4947920;28;20424;-72
2021/12/17 11:56:10;;;;;;;14.33;11.07;;;;;;;2.73;100.00;100097.09;4893442;28;20240;-72
2021/12/17 11:58:48;;;;;;;18.83;12.77;;;;;;;2.80;100.00;100097.72;4927474;28;20240;-72
2021/12/17 12:01:55;;;;;;;17.53;12.17;;;;;;;2.78;100.00;100083.84;4950694;28;20522;-72
2021/12/17 12:04:45;;;;;;;17.33;11.53;;;;;;;2.88;100.00;100087.78;4949936;28;20210;-72
2021/12/17 12:07:16;;;;;;;14.97;11.30;;;;;;;2.93;100.00;100092.81;4953796;28;20211;-72
2021/12/17 12:09:59;;;;;;;14.00;10.10;;;;;;;2.76;100.00;100089.13;4945468;28;20209;-74
2021/12/17 12:12:35;;;;;;;13.33;9.87;;;;;;;2.75;100.00;100100.50;4916609;28;20660;-73
2021/12/17 12:15:44;;;;;;;16.10;11.37;;;;;;;2.98;100.00;100090.88;4924521;28;20467;-73
2021/12/17 12:18:15;;;;;;;14.57;10.73;;;;;;;3.04;100.00;100081.00;4950989;28;20296;-74
2021/12/17 12:20:58;;;;;;;12.93;10.57;;;;;;;3.14;100.00;100081.44;4946506;28;20585;-72
2021/12/17 12:23:49;;;;;;;14.00;11.10;;;;;;;3.14;100.00;100086.69;4959247;28;20312;-74
2021/12/17 12:26:27;;;;;;;16.03;10.77;;;;;;;3.13;100.00;100079.72;4909117;28;20602;-73
2021/12/17 12:29:05;;;;;;;13.07;10.30;;;;;;;3.14;100.00;100078.81;4923096;28;21157;-72
2021/12/17 12:31:51;;;;;;;12.97;9.73;;;;;;;3.18;100.00;100093.47;4949931;28;20218;-72
2021/12/17 12:34:33;;;;;;;12.53;9.37;;;;;;;3.31;100.00;100087.75;4949937;28;20759;-72
2021/12/17 12:37:23;;;;;;;16.10;11.57;;;;;;;3.15;100.00;100072.66;4949744;28;20491;-72
2021/12/17 12:40:15;;;;;;;10.03;8.83;;;;;;;3.06;100.00;100056.50;4945079;28;20202;-72
2021/12/17 12:42:49;;;;;;;9.10;8.17;;;;;;;2.89;100.00;100066.78;4892007;28;20238;-72
2021/12/17 12:45:17;;;;;;;10.20;8.73;;;;;;;2.94;100.00;100058.69;4934224;28;20222;-72
2021/12/17 12:47:55;;;;;;;9.67;8.47;;;;;;;2.95;100.00;100059.56;4947334;28;20204;-72
2021/12/17 12:50:38;;;;;;;9.27;8.23;;;;;;;3.08;100.00;100059.91;4947685;28;20269;-72
2021/12/17 12:53:14;;;;;;;10.00;8.93;;;;;;;3.12;100.00;100051.81;4947109;28;20268;-72
2021/12/17 12:55:55;;;;;;;11.27;9.07;;;;;;;2.93;100.00;100056.16;4949285;28;20210;-72
2021/12/17 12:58:35;;;;;;;9.83;8.93;;;;;;;3.01;100.00;100059.31;4920155;28;20217;-74
2021/12/17 13:01:15;;;;;;;10.33;8.43;;;;;;;3.16;100.00;100066.50;4931068;28;20222;-73
2021/12/17 13:03:45;;;;;;;10.30;8.30;;;;;;;3.12;100.00;100070.16;4945481;28;20706;-74
2021/12/17 13:06:22;;;;;;;10.27;8.60;;;;;;;3.11;100.00;100075.50;4952537;28;20211;-73
2021/12/17 13:08:55;;;;;;;11.40;9.30;;;;;;;3.00;100.00;100078.56;4942107;28;20888;-74
2021/12/17 13:11:30;;;;;;;11.87;9.27;;;;;;;2.99;100.00;100082.94;4954888;28;20213;-73
2021/12/17 13:14:09;;;;;;;9.80;8.40;;;;;;;3.09;100.00;100085.19;4910784;28;20357;-72
2021/12/17 13:16:43;;;;;;;9.93;8.93;;;;;;;3.14;100.00;100098.94;4937127;28;20224;-72
2021/12/17 13:22:13;;;;;;;11.60;8.90;;;;;;;3.15;100.00;100106.72;4905196;28;20225;-72
2021/12/17 13:24:46;;;;;;;9.60;7.73;;;;;;;3.10;100.00;100090.34;4940209;28;20309;-72
2021/12/17 13:27:16;;;;;;;10.30;7.97;;;;;;;3.24;100.00;100096.78;4949016;28;20209;-72
2021/12/17 13:29:45;;;;;;;12.87;10.90;;;;;;;3.22;100.00;100095.97;4890748;28;20221;-71
2021/12/17 13:32:14;;;;;;;12.97;11.27;;;;;;;3.19;100.00;100095.19;4929754;28;21040;-71
2021/12/17 13:34:44;;;;;;;8.83;7.90;;;;;;;3.03;100.00;100088.91;4942828;28;20229;-71
2021/12/17 13:37:14;;;;;;;10.10;9.10;;;;;;;2.96;100.00;100090.09;4944971;28;20571;-74
2021/12/17 13:39:45;;;;;;;9.33;8.13;;;;;;;2.87;100.00;100083.44;4940015;28;20214;-74
2021/12/17 13:42:18;;;;;;;8.17;7.37;;;;;;;2.73;100.00;100076.16;4944917;28;20230;-73
2021/12/17 13:44:48;;;;;;;9.50;8.10;;;;;;;2.70;100.00;100068.44;4892344;28;20217;-73
2021/12/17 13:47:29;;;;;;;7.93;7.13;;;;;;;2.81;100.00;100075.84;4947182;28;20693;-73
2021/12/17 13:50:04;;;;;;;9.53;8.20;;;;;;;2.66;100.00;100079.94;4927047;28;20433;-73
2021/12/17 13:52:37;;;;;;;8.23;7.37;;;;;;;2.92;100.00;100071.00;4947175;28;20877;-72
2021/12/17 13:55:07;;;;;;;9.33;8.13;;;;;;;3.15;100.00;100075.28;4949558;28;20348;-72
2021/12/17 13:57:36;;;;;;;8.13;7.33;;;;;;;2.86;100.00;100082.63;4948470;28;20210;-72